Time;durP1;ratioP1;P1;durP2;ratioP2;P2;SDS_P1;SDS_P2;PMS_P1;PMS_P2;Temp;Humidity;BMP_temperature;BMP_pressure;BME280_temperature;BME280_humidity;BME280_pressure;Samples;Min_cycle;Max_cycle;Signal;HPM_P1;HPM_P2
2023/02/09 00:01:35;;;;;;;44.55;27.63;;;;;;;-10.24;100.00;94987.97;5110215;28;20055;-67
2023/02/09 00:04:02;;;;;;;54.22;30.85;;;;;;;-10.19;100.00;94987.84;5109777;28;20381;-67
2023/02/09 00:06:29;;;;;;;60.08;32.83;;;;;;;-10.21;100.00;94985.41;5110924;28;20094;-67
2023/02/09 00:08:56;;;;;;;51.47;29.48;;;;;;;-10.28;100.00;94981.44;5110761;28;20560;-68
2023/02/09 00:13:21;;;;;;;51.05;30.15;;;;;;;-10.29;100.00;94972.34;5111168;28;20044;-68
2023/02/09 00:14:11;;;;;;;57.00;32.30;;;;;;;-10.29;100.00;94974.03;5111008;28;20407;-67
2023/02/09 00:16:40;;;;;;;58.50;33.70;;;;;;;-10.20;100.00;94982.06;5110468;28;20048;-67
2023/02/09 00:19:07;;;;;;;40.53;22.88;;;;;;;-10.23;100.00;94982.13;5111128;28;20062;-67
2023/02/09 00:21:34;;;;;;;37.30;22.98;;;;;;;-10.36;100.00;94981.66;5110788;28;20048;-68
2023/02/09 00:24:00;;;;;;;35.40;20.73;;;;;;;-10.47;100.00;94976.16;5110648;28;20093;-68
2023/02/09 00:26:27;;;;;;;33.33;19.08;;;;;;;-10.51;100.00;94972.13;5110460;28;20044;-68
2023/02/09 00:28:54;;;;;;;28.02;17.77;;;;;;;-10.62;100.00;94979.81;5110605;28;20043;-67
2023/02/09 00:31:21;;;;;;;33.08;18.50;;;;;;;-10.78;100.00;94962.03;5110193;28;20092;-68
2023/02/09 00:33:49;;;;;;;45.47;24.75;;;;;;;-10.77;100.00;94976.06;5110617;28;20453;-68
2023/02/09 00:36:16;;;;;;;32.35;18.98;;;;;;;-10.82;100.00;94971.22;5110322;28;20101;-67
2023/02/09 00:38:44;;;;;;;45.92;23.83;;;;;;;-10.81;100.00;94970.34;5110339;28;20552;-67
2023/02/09 00:41:11;;;;;;;48.05;23.45;;;;;;;-10.80;100.00;94968.69;5110417;28;20044;-67
2023/02/09 00:43:38;;;;;;;48.50;27.05;;;;;;;-10.87;100.00;94955.59;5110404;27;20043;-67
2023/02/09 00:46:05;;;;;;;53.28;27.42;;;;;;;-10.71;100.00;94968.47;5110587;28;20047;-67
2023/02/09 00:48:33;;;;;;;39.25;22.85;;;;;;;-10.72;100.00;94969.31;5110481;28;20036;-67
2023/02/09 00:51:01;;;;;;;45.95;25.98;;;;;;;-10.65;100.00;94960.06;5110603;28;20376;-67
2023/02/09 00:53:28;;;;;;;37.65;23.42;;;;;;;-10.67;100.00;94957.59;5109775;28;20122;-68
2023/02/09 00:55:55;;;;;;;44.20;26.52;;;;;;;-10.68;100.00;94955.16;5110492;27;20044;-68
2023/02/09 00:58:22;;;;;;;44.00;27.15;;;;;;;-10.70;100.00;94959.34;5110299;28;20086;-68
2023/02/09 01:00:49;;;;;;;46.28;27.13;;;;;;;-10.73;100.00;94960.25;5108545;28;20048;-67
2023/02/09 01:03:16;;;;;;;39.25;24.00;;;;;;;-10.76;100.00;94960.31;5109553;28;20096;-67
2023/02/09 01:05:43;;;;;;;34.88;20.50;;;;;;;-10.90;100.00;94954.00;5109560;28;20491;-68
2023/02/09 01:08:11;;;;;;;33.15;19.45;;;;;;;-10.95;100.00;94947.50;5104181;28;20047;-67
2023/02/09 01:10:38;;;;;;;33.78;20.23;;;;;;;-10.97;100.00;94945.09;5108917;28;20035;-68
2023/02/09 01:13:06;;;;;;;37.58;22.70;;;;;;;-10.98;100.00;94935.19;5109424;28;20043;-68
2023/02/09 01:15:33;;;;;;;36.75;22.52;;;;;;;-10.86;100.00;94947.31;5109539;28;20135;-68
2023/02/09 01:18:00;;;;;;;40.75;22.98;;;;;;;-10.85;100.00;94943.16;5109282;28;20491;-68
2023/02/09 01:20:27;;;;;;;42.88;26.10;;;;;;;-10.88;100.00;94929.94;5109072;28;20040;-68
2023/02/09 01:22:54;;;;;;;41.83;25.88;;;;;;;-10.83;100.00;94926.56;5109835;28;20128;-68
2023/02/09 01:25:22;;;;;;;51.13;32.15;;;;;;;-10.89;100.00;94937.44;5109162;28;20043;-68
2023/02/09 01:27:48;;;;;;;53.65;31.60;;;;;;;-10.97;100.00;94931.84;5109347;28;20077;-68
2023/02/09 01:30:15;;;;;;;74.68;42.72;;;;;;;-11.01;100.00;94926.16;5106567;28;20040;-68
2023/02/09 01:32:42;;;;;;;81.93;46.58;;;;;;;-11.23;100.00;94919.22;5109320;28;20126;-68
2023/02/09 01:35:09;;;;;;;74.13;43.30;;;;;;;-11.12;100.00;94931.34;5109408;28;20039;-68
2023/02/09 01:37:36;;;;;;;63.55;37.35;;;;;;;-11.14;100.00;94923.97;5108062;28;20062;-66
2023/02/09 01:40:05;;;;;;;61.88;36.88;;;;;;;-11.14;100.00;94918.16;5109503;28;20059;-66
2023/02/09 01:42:33;;;;;;;61.75;36.70;;;;;;;-11.20;100.00;94898.47;5108448;28;20066;-66
2023/02/09 01:45:33;;;;;;;49.05;32.13;;;;;;;-11.12;100.00;94911.50;5107507;28;20051;-68
2023/02/09 01:48:03;;;;;;;52.03;31.00;;;;;;;-11.21;100.00;94904.28;5044795;28;20037;-68
2023/02/09 01:50:34;;;;;;;44.47;24.92;;;;;;;-11.25;100.00;94900.25;5096805;28;20054;-68
2023/02/09 01:53:02;;;;;;;50.42;29.38;;;;;;;-11.28;100.00;94901.97;5106996;28;20457;-68
2023/02/09 01:55:32;;;;;;;43.67;26.65;;;;;;;-11.25;100.00;94891.16;5108990;28;20088;-68
2023/02/09 01:58:03;;;;;;;37.22;23.25;;;;;;;-11.19;100.00;94905.06;5108814;28;20036;-68
2023/02/09 02:00:30;;;;;;;34.65;20.88;;;;;;;-11.17;100.00;94911.63;5108561;28;20047;-68
2023/02/09 02:03:01;;;;;;;34.13;19.95;;;;;;;-11.22;100.00;94915.06;5107630;28;20066;-68
2023/02/09 02:05:29;;;;;;;27.38;17.50;;;;;;;-11.27;100.00;94903.59;5108759;28;20104;-68
2023/02/09 02:08:03;;;;;;;35.92;22.25;;;;;;;-11.42;100.00;94892.34;5107752;28;20640;-68
2023/02/09 02:10:30;;;;;;;37.33;22.00;;;;;;;-11.30;100.00;94907.81;5108527;28;20571;-68
2023/02/09 02:12:57;;;;;;;38.10;25.20;;;;;;;-11.23;100.00;94906.81;5107272;28;20040;-68
2023/02/09 02:15:33;;;;;;;34.25;22.98;;;;;;;-11.29;100.00;94897.81;5108709;28;20047;-68
2023/02/09 02:18:13;;;;;;;39.70;24.33;;;;;;;-11.23;100.00;94901.00;5108305;28;20492;-68
2023/02/09 02:20:57;;;;;;;39.47;22.80;;;;;;;-11.21;100.00;94902.59;5107417;28;20552;-67
2023/02/09 02:23:33;;;;;;;36.65;23.85;;;;;;;-11.17;100.00;94896.72;5112641;28;20051;-67
2023/02/09 02:26:40;;;;;;;38.22;23.88;;;;;;;-11.18;100.00;94891.78;5112668;28;20385;-67
2023/02/09 02:29:24;;;;;;;37.22;23.25;;;;;;;-11.16;100.00;94893.38;5104132;28;20044;-67
2023/02/09 02:32:09;;;;;;;35.08;21.48;;;;;;;-11.10;100.00;94889.97;5112743;28;20112;-67
2023/02/09 02:34:44;;;;;;;35.53;21.30;;;;;;;-11.08;100.00;94889.94;5112497;28;20043;-67
2023/02/09 02:37:22;;;;;;;30.95;19.02;;;;;;;-11.33;100.00;94863.22;5111984;28;20492;-67
2023/02/09 02:39:56;;;;;;;31.73;18.67;;;;;;;-11.25;100.00;94883.72;5110863;28;20039;-68
2023/02/09 02:42:48;;;;;;;34.47;21.40;;;;;;;-11.31;100.00;94883.81;5112775;28;20060;-68
2023/02/09 02:45:31;;;;;;;32.13;20.75;;;;;;;-11.22;100.00;94885.28;5112823;27;20449;-68
2023/02/09 02:48:09;;;;;;;29.30;18.13;;;;;;;-11.24;100.00;94882.03;5108559;28;20593;-68
2023/02/09 02:50:41;;;;;;;33.97;21.15;;;;;;;-11.28;100.00;94876.31;5112809;28;20044;-68
2023/02/09 02:53:12;;;;;;;36.50;25.17;;;;;;;-11.24;100.00;94877.06;5097260;28;20089;-68
2023/02/09 02:55:39;;;;;;;30.35;19.13;;;;;;;-11.27;100.00;94875.47;5112860;27;20043;-68
2023/02/09 02:58:09;;;;;;;26.48;16.80;;;;;;;-11.30;100.00;94870.59;5113021;28;20102;-68
2023/02/09 03:00:41;;;;;;;22.98;14.50;;;;;;;-11.40;100.00;94872.44;5112296;28;20124;-68
2023/02/09 03:03:13;;;;;;;24.90;15.20;;;;;;;-11.46;100.00;94870.94;5112185;28;20051;-68
2023/02/09 03:05:42;;;;;;;24.30;15.10;;;;;;;-11.59;100.00;94872.06;5112578;28;20044;-68
2023/02/09 03:08:09;;;;;;;23.88;14.95;;;;;;;-11.60;100.00;94867.94;5112808;28;20093;-68
2023/02/09 03:10:39;;;;;;;27.23;17.27;;;;;;;-11.69;100.00;94866.50;5111137;27;20048;-68
2023/02/09 03:13:18;;;;;;;27.35;15.70;;;;;;;-11.74;100.00;94873.22;5100460;28;20036;-68
2023/02/09 03:15:59;;;;;;;27.70;16.40;;;;;;;-11.78;100.00;94874.94;5112232;28;20036;-67
2023/02/09 03:18:33;;;;;;;31.77;17.52;;;;;;;-11.89;100.00;94872.72;5112280;28;20500;-67
2023/02/09 03:21:06;;;;;;;39.92;22.83;;;;;;;-11.92;100.00;94866.97;5112346;28;20096;-67
2023/02/09 03:23:39;;;;;;;43.30;23.30;;;;;;;-11.96;100.00;94881.09;5111851;28;20105;-67
2023/02/09 03:26:12;;;;;;;42.50;23.77;;;;;;;-12.03;100.00;94870.53;5111990;28;20491;-67
2023/02/09 03:28:43;;;;;;;53.88;29.25;;;;;;;-11.97;100.00;94877.84;5111674;28;20545;-67
2023/02/09 03:31:10;;;;;;;68.75;34.05;;;;;;;-12.04;100.00;94865.63;5112187;28;20533;-67
2023/02/09 03:33:39;;;;;;;54.33;30.77;;;;;;;-12.16;100.00;94865.03;5111617;28;20044;-67
2023/02/09 03:36:10;;;;;;;61.03;32.42;;;;;;;-12.02;100.00;94866.38;5112024;28;20052;-67
2023/02/09 03:38:36;;;;;;;50.60;31.23;;;;;;;-11.86;100.00;94875.09;5111904;27;20043;-67
2023/02/09 03:41:03;;;;;;;46.67;26.50;;;;;;;-11.72;100.00;94874.00;5111917;28;20044;-67
2023/02/09 03:46:10;;;;;;;40.28;24.35;;;;;;;-11.63;100.00;94873.00;5110908;28;20627;-67
2023/02/09 03:48:39;;;;;;;38.33;21.55;;;;;;;-11.64;100.00;94876.31;5085516;28;20055;-68
2023/02/09 03:51:06;;;;;;;35.97;21.48;;;;;;;-11.62;100.00;94879.56;5111616;27;20044;-68
2023/02/09 03:53:35;;;;;;;32.80;18.80;;;;;;;-11.64;100.00;94871.38;5111675;28;20039;-68
2023/02/09 03:56:03;;;;;;;34.58;19.88;;;;;;;-11.71;100.00;94873.16;5110460;28;20460;-68
2023/02/09 03:58:34;;;;;;;35.08;20.02;;;;;;;-11.81;100.00;94880.00;5105496;28;20043;-68
2023/02/09 04:01:06;;;;;;;37.88;21.50;;;;;;;-11.79;100.00;94877.47;5110964;27;20530;-67
2023/02/09 04:03:33;;;;;;;32.00;19.70;;;;;;;-11.81;100.00;94880.00;5106982;28;20051;-67
2023/02/09 04:06:01;;;;;;;33.10;20.08;;;;;;;-11.69;100.00;94884.66;5111598;28;20080;-67
2023/02/09 04:08:29;;;;;;;39.85;22.77;;;;;;;-11.63;100.00;94876.28;5111168;28;20109;-67
2023/02/09 04:10:56;;;;;;;33.75;21.15;;;;;;;-11.69;100.00;94878.88;5111331;28;20136;-67
2023/02/09 04:13:23;;;;;;;34.78;22.90;;;;;;;-11.71;100.00;94883.88;5111186;28;20415;-67
2023/02/09 04:15:50;;;;;;;34.83;20.17;;;;;;;-11.91;100.00;94864.47;5111232;28;20499;-67
2023/02/09 04:18:16;;;;;;;56.15;28.02;;;;;;;-12.05;100.00;94883.81;5111266;28;20113;-67
2023/02/09 04:20:43;;;;;;;136.73;55.33;;;;;;;-12.09;100.00;94876.44;5110896;28;20043;-67
2023/02/09 04:23:11;;;;;;;103.82;48.65;;;;;;;-12.00;100.00;94877.88;5097290;28;20092;-67
2023/02/09 04:25:38;;;;;;;99.43;50.30;;;;;;;-12.14;100.00;94885.63;5110767;28;20500;-67
2023/02/09 04:28:05;;;;;;;87.45;50.47;;;;;;;-12.48;100.00;94888.75;5110875;28;20081;-67
2023/02/09 04:30:32;;;;;;;80.80;47.05;;;;;;;-12.50;100.00;94880.56;5110950;28;20048;-67
2023/02/09 04:32:59;;;;;;;95.57;52.40;;;;;;;-12.31;100.00;94872.78;5110431;28;20044;-67
2023/02/09 04:35:25;;;;;;;84.43;47.75;;;;;;;-12.32;100.00;94863.72;5110865;28;20047;-67
2023/02/09 04:37:52;;;;;;;75.93;41.35;;;;;;;-12.26;100.00;94871.03;5111329;28;20055;-67
2023/02/09 04:40:20;;;;;;;80.07;46.97;;;;;;;-12.27;100.00;94866.91;5109925;28;20113;-67
2023/02/09 04:42:47;;;;;;;73.72;46.30;;;;;;;-12.26;100.00;94868.53;5089334;28;20052;-67
2023/02/09 04:45:14;;;;;;;91.93;50.38;;;;;;;-12.20;100.00;94868.41;5096997;28;20047;-67
2023/02/09 04:47:40;;;;;;;85.28;46.83;;;;;;;-12.03;100.00;94869.69;5110487;28;20518;-67
2023/02/09 04:50:07;;;;;;;71.35;41.03;;;;;;;-11.96;100.00;94864.59;5110544;28;20039;-67
2023/02/09 04:52:34;;;;;;;63.03;38.40;;;;;;;-11.92;100.00;94864.50;5110342;28;20548;-67
2023/02/09 04:55:01;;;;;;;68.55;41.35;;;;;;;-11.90;100.00;94862.81;5097040;28;20043;-67
2023/02/09 05:00:14;;;;;;;45.95;26.58;;;;;;;-11.92;100.00;94859.56;5089063;28;20413;-67
2023/02/09 05:02:40;;;;;;;39.50;23.88;;;;;;;-12.00;100.00;94858.06;5109896;28;20472;-67
2023/02/09 05:05:07;;;;;;;43.85;26.92;;;;;;;-12.07;100.00;94861.56;5110404;28;20092;-68
2023/02/09 05:07:34;;;;;;;44.05;25.98;;;;;;;-12.10;100.00;94851.69;5109577;28;20073;-68
2023/02/09 05:10:01;;;;;;;45.25;25.02;;;;;;;-12.00;100.00;94862.22;5110134;28;20101;-68
2023/02/09 05:12:29;;;;;;;40.33;25.88;;;;;;;-12.31;100.00;94831.50;5109442;28;20503;-68
2023/02/09 05:14:56;;;;;;;37.35;22.15;;;;;;;-12.06;100.00;94860.69;5110340;28;20112;-67
2023/02/09 05:17:22;;;;;;;37.67;24.63;;;;;;;-12.15;100.00;94864.19;5110089;28;20072;-67
2023/02/09 05:19:49;;;;;;;39.53;21.80;;;;;;;-12.15;100.00;94861.72;5109848;28;20051;-67
2023/02/09 05:22:16;;;;;;;49.92;27.17;;;;;;;-12.18;100.00;94869.19;5110126;28;20040;-67
2023/02/09 05:24:42;;;;;;;78.20;43.47;;;;;;;-12.15;100.00;94865.84;5109994;28;20055;-67
2023/02/09 05:27:09;;;;;;;70.78;41.08;;;;;;;-12.14;100.00;94855.91;5109677;27;20047;-67
2023/02/09 05:29:37;;;;;;;58.08;32.30;;;;;;;-12.46;100.00;94820.22;5109592;28;20056;-67
2023/02/09 05:32:04;;;;;;;57.55;33.72;;;;;;;-12.12;100.00;94864.13;5109570;28;20047;-67
2023/02/09 05:34:31;;;;;;;56.70;34.95;;;;;;;-12.09;100.00;94864.06;5110041;28;20044;-67
2023/02/09 05:36:57;;;;;;;37.08;23.00;;;;;;;-12.06;100.00;94862.34;5109342;28;20103;-67
2023/02/09 05:39:24;;;;;;;37.55;22.33;;;;;;;-12.08;100.00;94863.19;5109603;28;20453;-67
2023/02/09 05:44:36;;;;;;;40.90;22.55;;;;;;;-12.05;100.00;94864.00;5106757;28;20170;-67
2023/02/09 05:47:03;;;;;;;41.13;23.98;;;;;;;-11.98;100.00;94870.41;5104757;28;20419;-67
2023/02/09 05:49:30;;;;;;;40.40;24.83;;;;;;;-11.99;100.00;94866.31;5109747;28;20043;-67
2023/02/09 05:51:57;;;;;;;44.20;24.08;;;;;;;-12.03;100.00;94858.13;5109421;28;20105;-67
2023/02/09 05:54:23;;;;;;;41.15;25.17;;;;;;;-11.96;100.00;94869.53;5108645;28;20043;-67
2023/02/09 05:56:50;;;;;;;43.30;26.20;;;;;;;-11.92;100.00;94869.47;5108986;28;20092;-67
2023/02/09 05:59:17;;;;;;;44.45;24.85;;;;;;;-11.87;100.00;94867.69;5108949;28;20168;-67
2023/02/09 06:01:45;;;;;;;52.03;32.45;;;;;;;-11.96;100.00;94872.03;5097521;28;20093;-67
2023/02/09 06:04:12;;;;;;;33.53;20.70;;;;;;;-12.03;100.00;94873.00;5106655;28;20097;-67
2023/02/09 06:06:38;;;;;;;34.85;21.40;;;;;;;-12.18;100.00;94864.22;5108132;28;20043;-67
2023/02/09 06:09:05;;;;;;;37.28;26.02;;;;;;;-12.17;100.00;94863.41;5108021;28;20051;-67
2023/02/09 06:11:32;;;;;;;43.22;26.65;;;;;;;-12.15;100.00;94863.34;5108374;28;20048;-67
2023/02/09 06:13:59;;;;;;;45.17;29.40;;;;;;;-12.14;100.00;94860.06;5108479;28;20492;-67
2023/02/09 06:16:25;;;;;;;49.08;32.50;;;;;;;-12.10;100.00;94852.53;5109182;28;20475;-67
2023/02/09 06:18:54;;;;;;;54.47;34.13;;;;;;;-12.08;100.00;94859.94;5108720;28;20040;-67
2023/02/09 06:21:20;;;;;;;60.80;37.35;;;;;;;-12.01;100.00;94853.97;5108796;28;20620;-67
2023/02/09 06:23:47;;;;;;;71.45;41.67;;;;;;;-11.89;100.00;94847.09;5102356;28;20093;-67
2023/02/09 06:26:16;;;;;;;71.72;41.90;;;;;;;-11.96;100.00;94836.50;5088984;28;20047;-67
2023/02/09 06:28:43;;;;;;;67.80;38.88;;;;;;;-11.79;100.00;94852.66;5082549;28;20557;-67
2023/02/09 06:31:10;;;;;;;69.60;40.85;;;;;;;-11.75;100.00;94849.28;5109097;28;20449;-67
2023/02/09 06:33:37;;;;;;;88.43;48.60;;;;;;;-11.60;100.00;94848.13;5108881;28;20048;-67
2023/02/09 06:36:07;;;;;;;73.82;43.20;;;;;;;-11.46;100.00;94845.31;5108799;28;20562;-67
2023/02/09 06:38:35;;;;;;;61.30;36.97;;;;;;;-11.39;100.00;94854.25;5109001;28;20058;-67
2023/02/09 06:41:02;;;;;;;66.25;37.40;;;;;;;-11.29;100.00;94843.25;5109046;28;20085;-67
2023/02/09 06:43:29;;;;;;;73.72;40.88;;;;;;;-11.20;100.00;94841.41;5108870;28;20040;-67
2023/02/09 06:45:56;;;;;;;100.47;50.47;;;;;;;-11.05;100.00;94846.00;5108759;28;20047;-67
2023/02/09 06:48:22;;;;;;;71.13;36.17;;;;;;;-10.98;100.00;94849.13;5108598;28;20159;-67
2023/02/09 06:50:49;;;;;;;78.57;41.42;;;;;;;-10.81;100.00;94850.34;5108658;28;20510;-67
2023/02/09 06:53:17;;;;;;;78.05;39.10;;;;;;;-10.64;100.00;94840.00;5108509;28;20047;-67
2023/02/09 06:55:44;;;;;;;60.88;35.15;;;;;;;-10.47;100.00;94850.28;5108877;28;20059;-67
2023/02/09 06:58:10;;;;;;;53.92;32.00;;;;;;;-10.29;100.00;94852.28;5108325;28;20043;-67
2023/02/09 07:00:37;;;;;;;69.85;41.58;;;;;;;-10.13;100.00;94845.22;5108415;28;20116;-68
2023/02/09 07:03:04;;;;;;;77.55;48.92;;;;;;;-9.98;100.00;94843.94;5108589;28;20100;-67
2023/02/09 07:05:31;;;;;;;62.17;35.90;;;;;;;-9.82;100.00;94841.84;5108702;28;20109;-67
2023/02/09 07:07:57;;;;;;;80.93;49.10;;;;;;;-9.61;100.00;94842.88;5110277;28;20073;-67
2023/02/09 07:10:26;;;;;;;70.10;45.15;;;;;;;-9.45;100.00;94835.72;5112404;28;20093;-67
2023/02/09 07:12:52;;;;;;;66.30;40.58;;;;;;;-9.29;100.00;94840.22;5111912;28;20062;-67
2023/02/09 07:15:19;;;;;;;59.35;37.35;;;;;;;-9.18;100.00;94837.38;5112432;28;20089;-67
2023/02/09 07:17:46;;;;;;;69.20;37.63;;;;;;;-9.07;100.00;94844.53;5112205;28;20047;-67
2023/02/09 07:20:13;;;;;;;45.03;28.90;;;;;;;-8.92;100.00;94850.66;5111824;28;20047;-67
2023/02/09 07:22:39;;;;;;;46.08;26.83;;;;;;;-8.74;100.00;94842.56;5111853;28;20092;-67
2023/02/09 07:25:07;;;;;;;53.83;32.15;;;;;;;-8.59;100.00;94841.25;5112011;28;20113;-67
2023/02/09 07:27:35;;;;;;;56.63;33.22;;;;;;;-8.58;100.00;94837.06;5105143;28;20184;-67
2023/02/09 07:30:01;;;;;;;60.53;33.95;;;;;;;-8.50;100.00;94837.59;5106224;28;20104;-67
2023/02/09 07:32:28;;;;;;;60.70;35.40;;;;;;;-8.30;100.00;94840.28;5111955;28;20043;-67
2023/02/09 07:34:55;;;;;;;105.97;58.33;;;;;;;-8.15;100.00;94842.19;5112159;28;20097;-67
2023/02/09 07:37:21;;;;;;;78.60;46.33;;;;;;;-8.01;100.00;94834.19;5112297;28;20039;-67
2023/02/09 07:39:48;;;;;;;74.95;44.20;;;;;;;-7.83;100.00;94836.91;5111716;28;20101;-67
2023/02/09 07:42:15;;;;;;;62.28;37.78;;;;;;;-7.68;100.00;94835.50;5102729;28;20040;-67
2023/02/09 07:44:43;;;;;;;64.47;40.88;;;;;;;-7.49;100.00;94838.13;5107343;28;20407;-67
2023/02/09 07:47:09;;;;;;;58.58;38.53;;;;;;;-7.30;100.00;94839.88;5111618;28;20044;-67
2023/02/09 07:49:36;;;;;;;71.07;43.58;;;;;;;-7.18;100.00;94833.59;5111130;28;20048;-67
2023/02/09 07:52:03;;;;;;;66.43;39.00;;;;;;;-7.06;100.00;94845.59;5111714;28;20044;-67
2023/02/09 07:54:30;;;;;;;61.22;38.78;;;;;;;-6.94;100.00;94838.47;5111264;28;20040;-67
2023/02/09 07:56:56;;;;;;;65.82;39.95;;;;;;;-6.84;100.00;94844.72;5111435;28;20047;-67
2023/02/09 07:59:23;;;;;;;76.30;42.83;;;;;;;-6.80;99.00;94837.91;5111083;28;20112;-67
2023/02/09 08:01:51;;;;;;;68.95;39.55;;;;;;;-6.71;100.00;94838.34;5111300;28;20442;-67
2023/02/09 08:04:18;;;;;;;72.35;38.30;;;;;;;-6.62;100.00;94823.84;5110852;28;20044;-67
2023/02/09 08:06:46;;;;;;;72.28;41.05;;;;;;;-6.37;100.00;94836.09;5111373;28;20083;-67
2023/02/09 08:09:15;;;;;;;99.32;56.60;;;;;;;-6.23;100.00;94838.00;5111335;28;20067;-67
2023/02/09 08:11:48;;;;;;;72.13;41.30;;;;;;;-6.15;99.11;94831.84;5111272;28;20074;-67
2023/02/09 08:14:20;;;;;;;80.13;48.63;;;;;;;-5.97;100.00;94838.50;5110665;28;20465;-67
2023/02/09 08:16:49;;;;;;;77.38;43.20;;;;;;;-5.85;100.00;94824.63;5111350;28;20096;-67
2023/02/09 08:19:21;;;;;;;75.85;42.83;;;;;;;-5.88;96.29;94842.28;5084103;28;20400;-67
2023/02/09 08:21:49;;;;;;;68.38;38.78;;;;;;;-5.74;99.21;94835.88;5110777;28;20050;-68
2023/02/09 08:24:18;;;;;;;69.85;40.28;;;;;;;-5.59;100.00;94841.84;5111009;28;20116;-68
2023/02/09 08:26:45;;;;;;;65.75;38.70;;;;;;;-5.39;99.61;94845.94;5110348;28;20549;-68
2023/02/09 08:29:12;;;;;;;61.42;32.83;;;;;;;-5.36;96.13;94853.31;5111093;28;20267;-67
2023/02/09 08:31:40;;;;;;;56.03;32.13;;;;;;;-5.88;91.95;94856.50;5109950;28;20512;-67
2023/02/09 08:34:06;;;;;;;52.33;31.10;;;;;;;-5.69;95.54;94847.28;5110929;28;20405;-67
2023/02/09 08:36:36;;;;;;;59.78;33.60;;;;;;;-5.56;95.95;94851.75;5110330;28;20047;-67
2023/02/09 08:39:04;;;;;;;47.08;25.92;;;;;;;-5.43;94.91;94854.47;5110463;28;20044;-67
2023/02/09 08:41:31;;;;;;;117.63;49.13;;;;;;;-5.53;92.48;94856.59;5110208;28;20092;-67
2023/02/09 08:43:57;;;;;;;47.08;24.02;;;;;;;-5.39;95.49;94855.97;5110345;28;20094;-67
2023/02/09 08:46:24;;;;;;;34.90;20.42;;;;;;;-5.53;90.86;94851.59;5109830;28;20044;-67
2023/02/09 08:48:52;;;;;;;55.78;31.20;;;;;;;-5.25;96.39;94861.16;5110679;28;20052;-67
2023/02/09 08:51:19;;;;;;;40.97;22.65;;;;;;;-4.99;98.31;94861.59;5109846;28;20047;-67
2023/02/09 08:53:50;;;;;;;43.90;24.23;;;;;;;-4.76;96.28;94864.69;5110037;28;20051;-67
2023/02/09 08:56:17;;;;;;;38.03;19.75;;;;;;;-4.57;94.51;94863.78;5109964;28;20044;-67
2023/02/09 08:58:44;;;;;;;36.47;21.40;;;;;;;-4.34;95.58;94867.66;5110455;28;20043;-67
2023/02/09 09:01:12;;;;;;;36.47;20.65;;;;;;;-4.21;91.86;94874.56;5109549;28;20437;-67
2023/02/09 09:03:40;;;;;;;32.10;19.42;;;;;;;-4.41;86.40;94860.53;5110080;28;20051;-67
2023/02/09 09:06:09;;;;;;;32.25;17.27;;;;;;;-4.32;86.86;94878.41;5109772;27;20053;-68
2023/02/09 09:08:38;;;;;;;38.25;21.13;;;;;;;-4.13;93.67;94874.19;5110446;28;20160;-68
2023/02/09 09:11:11;;;;;;;33.03;19.45;;;;;;;-3.86;92.31;94876.94;5109468;28;20069;-68
2023/02/09 09:13:38;;;;;;;33.13;19.13;;;;;;;-3.86;88.26;94866.09;5109572;28;20048;-68
2023/02/09 09:16:06;;;;;;;59.35;33.88;;;;;;;-3.64;89.40;94888.38;5109818;28;20120;-66
2023/02/09 09:18:33;;;;;;;118.57;68.57;;;;;;;-3.51;89.99;94881.81;5109873;28;20431;-66
2023/02/09 09:21:00;;;;;;;99.32;56.70;;;;;;;-3.41;90.65;94883.84;5109443;28;20039;-66
2023/02/09 09:23:26;;;;;;;81.50;44.63;;;;;;;-3.24;91.15;94890.47;5109620;28;20050;-66
2023/02/09 09:25:53;;;;;;;28.90;18.33;;;;;;;-3.14;86.19;94896.59;5109645;28;20043;-66
2023/02/09 09:28:21;;;;;;;30.85;18.30;;;;;;;-3.11;86.33;94893.09;5109749;28;20048;-66
2023/02/09 09:30:48;;;;;;;30.92;18.40;;;;;;;-3.39;81.37;94897.94;5109314;28;20552;-66
2023/02/09 09:33:14;;;;;;;26.20;15.75;;;;;;;-3.74;81.89;94885.56;5109654;28;20044;-67
2023/02/09 09:35:41;;;;;;;25.17;16.10;;;;;;;-4.06;82.20;94893.88;5109587;28;20047;-68
2023/02/09 09:38:08;;;;;;;24.58;16.33;;;;;;;-3.99;83.68;94901.06;5109184;28;20045;-68
2023/02/09 09:40:39;;;;;;;74.20;38.17;;;;;;;-3.90;91.48;94886.34;5109501;28;20097;-68
2023/02/09 09:43:14;;;;;;;114.70;53.38;;;;;;;-3.62;92.91;94882.38;5109449;28;20039;-68
2023/02/09 09:45:42;;;;;;;29.25;17.77;;;;;;;-3.34;89.20;94880.09;5109207;28;20083;-68
2023/02/09 09:48:19;;;;;;;24.10;14.95;;;;;;;-3.09;88.63;94883.78;5109421;28;20040;-67
2023/02/09 09:50:46;;;;;;;27.08;16.85;;;;;;;-2.94;86.25;94889.69;5109627;28;20047;-67
2023/02/09 09:53:23;;;;;;;26.95;15.20;;;;;;;-2.81;86.39;94877.22;5109394;28;20105;-67
2023/02/09 09:55:54;;;;;;;23.30;10.88;;;;;;;-2.75;83.30;94881.09;5109464;28;20051;-67
2023/02/09 09:58:21;;;;;;;21.38;11.00;;;;;;;-2.87;76.94;94890.16;5109328;28;20054;-66
2023/02/09 10:00:51;;;;;;;23.33;11.35;;;;;;;-3.26;79.05;94879.69;5108754;28;20495;-68
2023/02/09 10:03:19;;;;;;;18.35;9.75;;;;;;;-3.58;79.61;94880.53;5109164;28;20400;-68
2023/02/09 10:05:48;;;;;;;19.55;11.55;;;;;;;-4.18;82.36;94877.72;5108780;28;20507;-68
2023/02/09 10:08:21;;;;;;;22.73;14.32;;;;;;;-4.03;86.76;94867.81;5109511;28;20411;-68
2023/02/09 10:10:55;;;;;;;22.45;14.63;;;;;;;-4.04;86.46;94859.44;5108797;28;20635;-68
2023/02/09 10:13:24;;;;;;;41.13;22.55;;;;;;;-3.68;94.26;94864.31;5109258;28;20043;-68
2023/02/09 10:15:54;;;;;;;30.95;18.08;;;;;;;-3.46;84.61;94864.00;5109210;28;20043;-69
2023/02/09 10:18:24;;;;;;;35.95;17.85;;;;;;;-3.24;86.33;94860.31;5109048;28;20104;-69
2023/02/09 10:20:53;;;;;;;38.22;19.70;;;;;;;-2.93;87.65;94855.28;5109108;28;20040;-69
2023/02/09 10:23:23;;;;;;;25.83;15.38;;;;;;;-2.82;84.17;94853.00;5108642;28;20100;-69
2023/02/09 10:26:02;;;;;;;26.17;14.88;;;;;;;-2.95;78.12;94855.38;5109133;28;20047;-69
2023/02/09 10:28:31;;;;;;;28.23;14.63;;;;;;;-2.95;77.18;94845.31;5108929;28;20094;-69
2023/02/09 10:31:02;;;;;;;55.33;33.80;;;;;;;-2.80;85.38;94836.09;5109233;28;20112;-69
2023/02/09 10:33:37;;;;;;;27.60;15.93;;;;;;;-2.68;84.43;94832.06;5108594;28;20446;-70
2023/02/09 10:36:05;;;;;;;28.05;14.10;;;;;;;-2.49;85.04;94828.50;5109100;28;20047;-69
2023/02/09 10:38:33;;;;;;;22.65;10.85;;;;;;;-2.46;75.82;94831.63;5104678;28;20047;-69
2023/02/09 10:43:52;;;;;;;23.95;11.20;;;;;;;-2.49;77.41;94820.94;5112115;28;20096;-69
2023/02/09 10:46:21;;;;;;;16.33;8.20;;;;;;;-2.85;75.27;94825.47;5112915;28;20051;-69
2023/02/09 10:48:48;;;;;;;17.23;8.23;;;;;;;-3.06;77.20;94810.72;5113010;28;20040;-69
2023/02/09 10:51:16;;;;;;;22.38;11.05;;;;;;;-3.06;75.13;94813.22;5112984;28;20097;-69
2023/02/09 10:53:58;;;;;;;20.45;12.98;;;;;;;-2.93;78.69;94810.81;5112876;28;20100;-69
2023/02/09 10:56:27;;;;;;;17.08;10.88;;;;;;;-3.44;77.27;94816.97;5112498;28;20097;-69
2023/02/09 10:58:59;;;;;;;16.17;9.90;;;;;;;-3.56;78.12;94813.41;5112451;28;20092;-69
2023/02/09 11:01:29;;;;;;;16.73;10.40;;;;;;;-3.68;75.56;94812.41;5112330;28;20044;-69
2023/02/09 11:03:59;;;;;;;19.70;10.80;;;;;;;-3.34;82.25;94797.16;5112661;28;20052;-69
2023/02/09 11:06:26;;;;;;;24.30;13.65;;;;;;;-3.09;82.99;94801.63;5087036;28;20055;-67
2023/02/09 11:08:59;;;;;;;19.80;13.02;;;;;;;-2.83;79.49;94804.38;5112661;28;20108;-67
2023/02/09 11:11:31;;;;;;;21.52;12.38;;;;;;;-2.61;81.55;94807.34;5112512;28;20093;-67
2023/02/09 11:13:57;;;;;;;18.83;12.30;;;;;;;-2.60;76.03;94794.69;5111703;28;20055;-67
2023/02/09 11:16:49;;;;;;;20.40;13.85;;;;;;;-2.51;79.89;94773.22;5112665;28;20118;-67
2023/02/09 11:19:54;;;;;;;20.33;13.20;;;;;;;-2.73;79.14;94789.56;5111958;28;20488;-69
2023/02/09 11:22:29;;;;;;;22.65;13.88;;;;;;;-2.88;80.75;94786.22;5106601;28;20043;-69
2023/02/09 11:25:04;;;;;;;19.55;11.80;;;;;;;-2.92;80.92;94778.97;5112485;28;20056;-69
2023/02/09 11:27:57;;;;;;;18.08;11.15;;;;;;;-2.73;78.43;94766.94;5112075;28;20047;-67